Terminal Aerodrome Forecast
Issued by NWS

Home | Current Version | Previous Version | Graphics & Text | Print | Product List | Glossary On
Versions: 1 2 3 4 5 6 7 8 9 10 11 12 13 14 15 16 17 18 19 20 21 22 23 24 25 26
192
FTUS43 KABR 192329
TAFMBG
TAF
KMBG 192329Z 2000/2024 13008KT P6SM SKC
     FM200300 14006KT 2SM BR FEW001
     FM200400 14005KT 1/2SM FG VV002
     FM201600 15005KT 1 1/2SM BR OVC003
     FM201800 14005KT 6SM BR BKN006
     FM202100 15004KT P6SM FEW010
     FM202300 17005KT P6SM BKN015=

USA.gov is the U.S. government's official web portal to all federal, state and local government web resources and services.